Weather at Zaragoza Air Base

Public forecast

Using degrees Celsius for public forecast. Weather courtesy of forecast.io.

Current aviation weather report (METAR) for Zaragoza Air Base

Retrieved 2021/06/21 09:30 UTC (30 minutes ago):

LEZG 210930Z 24011KT 9999 FEW050 SCT070 23/09 Q1011

Aviation forecast (TAF) for Zaragoza Air Base

Retrieved 2021/06/21 06:27 UTC (4 hours ago):

TAF LEZG 210500Z 2106/2206 24012KT 9999 SCT080 TX31/2115Z TN16/2106Z TEMPO 2106/2107 VRB03KT BECMG 2122/2124 30010KT